createdAt,value
2023-05-05T00:06:40.048Z,13.14
2023-05-05T00:16:46.859Z,13.09
2023-05-05T00:26:51.097Z,13.04
2023-05-05T00:36:56.253Z,12.86
2023-05-05T00:47:00.009Z,12.76
2023-05-05T00:57:05.364Z,12.66
2023-05-05T01:07:22.212Z,12.66
2023-05-05T01:17:36.335Z,12.71
2023-05-05T01:28:08.521Z,12.66
2023-05-05T01:38:18.602Z,12.78
2023-05-05T01:48:23.936Z,12.54
2023-05-05T01:58:31.334Z,12.33
2023-05-05T02:08:38.041Z,12.30
2023-05-05T02:18:44.315Z,12.41
2023-05-05T02:28:53.648Z,12.30
2023-05-05T02:39:04.718Z,11.95
2023-05-05T02:49:08.522Z,12.00
2023-05-05T02:59:20.998Z,11.84
2023-05-05T03:09:31.243Z,11.72
2023-05-05T03:19:38.288Z,11.71
2023-05-05T03:29:41.920Z,11.54
2023-05-05T03:39:46.947Z,11.74
2023-05-05T03:49:50.517Z,11.83
2023-05-05T03:59:55.598Z,12.05
2023-05-05T04:09:59.220Z,12.04
2023-05-05T04:20:04.765Z,12.06
2023-05-05T04:30:10.719Z,12.26
2023-05-05T04:40:16.151Z,12.40
2023-05-05T04:50:20.366Z,12.58
2023-05-05T05:00:25.580Z,12.86
2023-05-05T05:10:29.461Z,13.19
2023-05-05T05:20:34.595Z,13.18
2023-05-05T05:30:38.590Z,13.43
2023-05-05T05:40:43.763Z,13.80
2023-05-05T05:50:47.596Z,14.13
2023-05-05T06:00:52.708Z,14.67
2023-05-05T06:10:56.411Z,14.88
2023-05-05T06:21:02.047Z,15.25
2023-05-05T06:31:08.297Z,15.70
2023-05-05T06:41:13.470Z,16.11
2023-05-05T06:51:17.209Z,16.61
2023-05-05T07:01:22.201Z,16.70
2023-05-05T07:11:25.885Z,16.99
2023-05-05T07:21:30.904Z,17.50
2023-05-05T07:31:34.645Z,18.00
2023-05-05T07:41:39.936Z,18.67
2023-05-05T07:51:44.880Z,19.05
2023-05-05T08:01:49.952Z,19.40
2023-05-05T08:11:53.540Z,20.00
2023-05-05T08:22:01.127Z,19.86
2023-05-05T08:32:05.232Z,19.64
2023-05-05T08:42:10.373Z,19.45
2023-05-05T08:52:17.234Z,20.07
2023-05-05T09:02:23.950Z,20.45
2023-05-05T09:12:31.762Z,20.97
2023-05-05T09:22:38.787Z,21.24
2023-05-05T09:32:47.690Z,21.38
2023-05-05T09:43:02.799Z,21.64
2023-05-05T09:53:07.276Z,22.10
2023-05-05T10:03:12.413Z,22.71
2023-05-05T10:13:21.559Z,23.42
2023-05-05T10:23:37.174Z,23.26
2023-05-05T10:33:50.034Z,22.92
2023-05-05T10:43:57.489Z,23.61
2023-05-05T10:54:10.281Z,23.75
2023-05-05T11:04:23.584Z,24.65
2023-05-05T11:14:27.230Z,24.86
2023-05-05T11:24:36.447Z,24.82
2023-05-05T11:34:50.766Z,25.16
2023-05-05T11:44:56.212Z,25.16
2023-05-05T11:55:03.645Z,25.02
2023-05-05T12:05:09.355Z,25.30
2023-05-05T12:15:13.046Z,24.75
2023-05-05T12:25:18.529Z,25.98
2023-05-05T12:35:22.475Z,25.70
2023-05-05T12:45:27.748Z,25.90
2023-05-05T12:55:39.913Z,25.54
2023-05-05T13:05:45.058Z,25.76
2023-05-05T13:15:48.712Z,25.67
2023-05-05T13:25:53.928Z,25.86
2023-05-05T13:35:57.603Z,25.98
2023-05-05T13:46:18.619Z,26.15
2023-05-05T13:56:26.054Z,26.02
2023-05-05T14:06:31.235Z,26.09
2023-05-05T14:16:35.104Z,25.79
2023-05-05T14:26:40.177Z,25.54
2023-05-05T14:36:43.856Z,25.82
2023-05-05T14:46:50.484Z,25.72
2023-05-05T14:56:54.786Z,25.34
2023-05-05T15:06:59.797Z,24.87
2023-05-05T15:17:03.756Z,24.09
2023-05-05T15:27:08.815Z,23.56
2023-05-05T15:37:12.528Z,23.06
2023-05-05T15:47:17.586Z,21.85
2023-05-05T15:57:21.397Z,20.29
2023-05-05T16:07:26.915Z,20.00
2023-05-05T16:17:31.020Z,19.88
2023-05-05T16:27:36.023Z,19.80
2023-05-05T16:37:39.758Z,19.85
2023-05-05T16:47:45.501Z,19.69
2023-05-05T16:57:49.325Z,19.64
2023-05-05T17:07:54.654Z,19.53
2023-05-05T17:17:58.378Z,19.53
2023-05-05T17:28:05.834Z,19.42
2023-05-05T17:38:09.539Z,19.42
2023-05-05T17:48:14.570Z,19.39
2023-05-05T17:58:18.349Z,19.18
2023-05-05T18:08:23.393Z,19.04
2023-05-05T18:18:27.031Z,18.91
2023-05-05T18:28:32.175Z,18.81
2023-05-05T18:38:37.166Z,18.67
2023-05-05T18:48:42.115Z,18.45
2023-05-05T18:58:45.753Z,18.36
2023-05-05T19:08:51.113Z,18.18
2023-05-05T19:18:58.632Z,18.13
2023-05-05T19:29:03.964Z,18.08
2023-05-05T19:39:08.120Z,18.03
2023-05-05T19:49:13.193Z,17.83
2023-05-05T19:59:16.813Z,17.59
2023-05-05T20:09:21.736Z,17.49
2023-05-05T20:19:25.811Z,17.08
2023-05-05T20:29:30.820Z,17.02
2023-05-05T20:39:34.480Z,16.95
2023-05-05T20:49:39.464Z,16.59
2023-05-05T20:59:43.126Z,16.47
2023-05-05T21:09:51.400Z,16.54
2023-05-05T21:19:56.156Z,16.60
2023-05-05T21:30:01.628Z,16.76
2023-05-05T21:40:07.201Z,16.81
2023-05-05T21:50:13.161Z,16.75
2023-05-05T22:00:17.667Z,16.69
2023-05-05T22:10:22.918Z,16.71
2023-05-05T22:20:27.178Z,16.73
2023-05-05T22:30:32.234Z,16.71
2023-05-05T22:40:36.620Z,16.61
2023-05-05T22:50:41.845Z,15.81
2023-05-05T23:00:45.662Z,15.61
2023-05-05T23:10:51.822Z,15.41
2023-05-05T23:20:55.829Z,15.39
2023-05-05T23:31:01.011Z,15.61
2023-05-05T23:41:05.064Z,15.48
2023-05-05T23:51:10.210Z,15.24
